Bei Facebook empfehlenBei Twitter postenGoogle plusPinterest

Das Wetter im Erzgebirge am 31.05.2017

Wetter und Klima am 31.05.2017 Holzhau im Erzgebirge (630m ü.NN)
Letzte gemessene Temperatur und Uhrzeit der Messung23:45:00 Uhr9.40 °C
Temperatur (Maximum / Höchstwert) und Uhrzeit der Messung15:45:00 Uhr22.30 °C
Temperatur (Minimum / Tiefstwert) und Uhrzeit der Messung23:30:009.30 °C
Errechneter Absolutwert der Temperaturschwankungen zwischen Tmin und Tmax des Tages13.00 K
Errechnete Tagesmitteltemperatur15.67500 °C
Gesamt - Niederschlag des Tages (in flüssiger Form)0.00 Liter / m²
Luftdruck (Maximum / Höchstwert) und Zeitpunkt der Messung23:30:00 Uhr1018.00 hPa
Luftdruck (Minimum / Tiefstwert) und Zeitpunkt der Messung00:00:00 Uhr1013.00 hPa
Errechneter Absolutwert der Luftdruckschwankungen des Tages5.00 hPa
Höchste gemessene Windgeschwindigkeit und Uhrzeit der Messung14:45:00 Uhr42.84 km/h
Errechnete Windhäufigkeit in Relation zu den Messwerten des Tages8.33333 %
Niedrigste Windkühle (Windchill) und Zeitpunkt der Messung23:30:00 Uhr9.30 °C
Taupunkt (Maximum / Höchstwert) und Uhrzeit der Messung12:30:00 Uhr13.60 °C
Taupunkt (Minimum / Tiefstwert) und Uhrzeit der Messung23:15:006.70 °C
Anzahl der automatisch eingelesenen Messwerte 96

Detaillierte Wetter- und Klima- Messwerte für den 31.05.2017 in Holzhau im Erzgebirge (630m ü.NN)
ZeitTemperaturLuftdruckRel. LuftfeuchteWindWindrichtungWindchillTaupunktNiederschlag l/m²
23:45:009.40 °C1017.80 hPa86.00 %7.20 °C 
23:30:009.30 °C1018.00 hPa85.00 %6.90 °C 
23:15:009.30 °C1017.80 hPa84.00 %6.70 °C 
23:00:009.60 °C1017.90 hPa84.00 %7.00 °C 
22:45:009.90 °C1018.00 hPa82.00 %7.00 °C 
22:30:0010.40 °C1017.90 hPa82.00 %7.50 °C 
22:15:0010.90 °C1017.70 hPa80.00 %7.60 °C 
22:00:0011.40 °C1017.80 hPa78.00 %7.70 °C 
21:45:0012.20 °C1017.70 hPa76.00 %8.10 °C 
21:30:0013.20 °C1017.60 hPa74.00 %8.70 °C 
21:15:0013.90 °C1017.30 hPa71.00 %8.70 °C 
21:00:0014.80 °C1017.20 hPa69.00 %9.20 °C 
20:45:0015.30 °C1017.00 hPa68.00 %9.40 °C 
20:30:0015.90 °C1017.10 hPa67.00 %9.80 °C 
20:15:0016.40 °C1017.10 hPa66.00 %10.00 °C 
20:00:0016.90 °C1017.20 hPa65.00 %10.30 °C 
19:45:0017.20 °C1017.00 hPa64.00 %10.30 °C 
19:30:0017.60 °C1017.00 hPa64.00 %10.70 °C 
19:15:0018.10 °C1017.00 hPa63.00 %11.00 °C 
19:00:0018.90 °C1017.10 hPa61.00 %11.20 °C 
18:45:0018.60 °C1017.20 hPa63.00 %11.40 °C 
18:30:0019.20 °C1017.00 hPa62.00 %11.70 °C 
18:15:0019.60 °C1017.00 hPa61.00 %11.90 °C 
18:00:0019.90 °C1017.10 hPa60.00 %20.88 km/hWNW20.90 °C11.90 °C 
17:45:0020.30 °C1017.20 hPa59.00 %12.00 °C 
17:30:0020.40 °C1017.40 hPa59.00 %12.96 km/hNNW20.40 °C12.10 °C 
17:15:0020.60 °C1017.50 hPa58.00 %12.10 °C 
17:00:0021.00 °C1017.50 hPa57.00 %12.20 °C 
16:45:0020.90 °C1017.40 hPa56.00 %11.80 °C 
16:30:0021.30 °C1017.50 hPa53.00 %11.30 °C 
16:15:0021.30 °C1017.50 hPa53.00 %11.30 °C 
16:00:0021.40 °C1017.70 hPa52.00 %11.10 °C 
15:45:0022.30 °C1017.70 hPa50.00 %6.48 km/hSW22.30 °C11.40 °C 
15:30:0021.80 °C1017.90 hPa52.00 %11.50 °C 
15:15:0021.30 °C1017.90 hPa54.00 %11.60 °C 
15:00:0020.70 °C1017.80 hPa54.00 %11.10 °C 
14:45:0020.90 °C1017.80 hPa54.00 %42.84 km/hWNW21.50 °C11.30 °C 
14:30:0020.20 °C1017.80 hPa56.00 %3.96 km/hWSW20.20 °C11.10 °C 
14:15:0020.10 °C1017.80 hPa55.00 %9.00 km/hWNW20.10 °C10.80 °C 
14:00:0019.30 °C1018.00 hPa59.00 %11.10 °C 
13:45:0019.60 °C1017.70 hPa59.00 %11.40 °C 
13:30:0019.80 °C1017.80 hPa60.00 %11.80 °C 
13:15:0020.30 °C1017.70 hPa60.00 %12.30 °C 
13:00:0020.30 °C1017.80 hPa61.00 %2.52 km/hNW20.30 °C12.50 °C 
12:45:0020.90 °C1017.50 hPa61.00 %13.10 °C 
12:30:0020.10 °C1017.50 hPa66.00 %13.60 °C 
12:15:0018.90 °C1017.50 hPa67.00 %5.04 km/hN18.90 °C12.60 °C 
12:00:0018.40 °C1017.60 hPa67.00 %12.20 °C 
11:45:0017.80 °C1017.60 hPa69.00 %12.00 °C 
11:30:0017.50 °C1017.40 hPa69.00 %11.80 °C 
11:15:0017.30 °C1017.30 hPa69.00 %11.60 °C 
11:00:0017.80 °C1017.40 hPa69.00 %12.00 °C 
10:45:0018.30 °C1017.20 hPa68.00 %12.30 °C 
10:30:0017.20 °C1016.90 hPa72.00 %12.10 °C 
10:15:0016.30 °C1017.00 hPa76.00 %12.10 °C 
10:00:0015.90 °C1016.80 hPa77.00 %11.90 °C 
09:45:0015.90 °C1016.70 hPa78.00 %12.10 °C 
09:30:0015.90 °C1016.60 hPa80.00 %12.50 °C 
09:15:0015.10 °C1016.60 hPa84.00 %12.40 °C 
09:00:0014.50 °C1016.60 hPa86.00 %12.20 °C 
08:45:0014.40 °C1016.20 hPa85.00 %11.90 °C 
08:30:0014.40 °C1016.10 hPa85.00 %11.90 °C 
08:15:0014.30 °C1016.10 hPa86.00 %12.00 °C 
08:00:0014.30 °C1016.20 hPa86.00 %12.00 °C 
07:45:0014.20 °C1016.00 hPa88.00 %12.20 °C 
07:30:0014.20 °C1016.00 hPa88.00 %12.20 °C 
07:15:0014.20 °C1015.70 hPa89.00 %12.40 °C 
07:00:0014.30 °C1015.40 hPa89.00 %12.50 °C 
06:45:0014.20 °C1015.40 hPa88.00 %12.20 °C 
06:30:0014.20 °C1015.20 hPa88.00 %12.20 °C 
06:15:0014.20 °C1015.10 hPa87.00 %12.10 °C 
06:00:0014.30 °C1015.00 hPa87.00 %12.20 °C 
05:45:0014.40 °C1015.10 hPa88.00 %12.40 °C 
05:30:0014.50 °C1014.80 hPa89.00 %12.70 °C 
05:15:0014.60 °C1014.50 hPa90.00 %13.00 °C 
05:00:0014.50 °C1014.40 hPa91.00 %13.00 °C 
04:45:0014.30 °C1014.20 hPa91.00 %12.90 °C 
04:30:0014.20 °C1014.30 hPa91.00 %12.80 °C 
04:15:0013.80 °C1014.30 hPa92.00 %12.50 °C 
04:00:0013.30 °C1014.10 hPa92.00 %12.00 °C 
03:45:0012.60 °C1014.10 hPa92.00 %11.30 °C 
03:30:0011.80 °C1014.10 hPa92.00 %10.50 °C 
03:15:0011.10 °C1014.00 hPa91.00 %9.70 °C 
03:00:0010.60 °C1013.80 hPa91.00 %9.20 °C 
02:45:0010.40 °C1013.60 hPa91.00 %9.00 °C 
02:30:0010.40 °C1013.60 hPa90.00 %8.80 °C 
02:15:0010.40 °C1013.60 hPa89.00 %8.70 °C 
02:00:0010.60 °C1013.50 hPa89.00 %8.90 °C 
01:45:0010.90 °C1013.40 hPa88.00 %9.00 °C 
01:30:0011.00 °C1013.40 hPa89.00 %9.30 °C 
01:15:0011.10 °C1013.30 hPa88.00 %9.20 °C 
01:00:0011.40 °C1013.20 hPa88.00 %9.50 °C 
00:45:0011.60 °C1013.20 hPa87.00 %9.50 °C 
00:30:0011.90 °C1013.20 hPa87.00 %9.80 °C 
00:15:0012.30 °C1013.20 hPa86.00 %10.00 °C 
00:00:0012.40 °C1013.00 hPa87.00 %10.30 °C 

Permanenter Link zu dieser Seite: Wetter im Erzgebirge am 31.05.2017
Performance-Info: Die Erstellung der Seite / Statistik(en) / Tabelle(n) erforderte 5 Datenbankserver-Abfrage(n) und dauerte 104 Millisekunden. (Dieser Messwert ist von der Gesamt-Auslastung des Servers abhängig.)
Erzgebirge - Wetter | Erzgebirge - Wetter (Mobilgeräte) | Komplette Klimadatenbank